Terminal Aerodrome Forecast
Issued by NWS Pittsburgh, PA

Home | Current Version | Previous Version | Text Only | Print | Product List | Glossary On
Versions: 1 2 3 4 5 6 7 8 9 10 11 12 13 14 15 16 17 18 19 20 21 22 23 24 25 26 27 28
000
FTUS41 KPBZ 260520
TAFPIT
TAF
KPIT 260520Z 2606/2712 00000KT 6SM BR OVC015
     FM260900 00000KT 3SM BR SCT015
      TEMPO 2610/2612 1SM BR SCT015
     FM261300 14003KT P6SM SCT090
     FM262100 18006KT P6SM SKC=

USA.gov is the U.S. government's official web portal to all federal, state and local government web resources and services.